Time;durP1;ratioP1;P1;durP2;ratioP2;P2;SDS_P1;SDS_P2;PMS_P1;PMS_P2;Temp;Humidity;BMP_temperature;BMP_pressure;BME280_temperature;BME280_humidity;BME280_pressure;Samples;Min_cycle;Max_cycle;Signal;HPM_P1;HPM_P2
2021/01/21 00:01:27;;;;;;;11.50;5.97;;;76.80;2227.20;;;;;;5073455;28;20515;-66
2021/01/21 00:03:53;;;;;;;13.07;7.22;;;76.80;2227.20;;;;;;5073666;28;20074;-66
2021/01/21 00:06:19;;;;;;;13.23;9.68;;;76.80;2227.20;;;;;;5075461;28;20067;-66
2021/01/21 00:08:44;;;;;;;15.10;7.20;;;76.80;2227.20;;;;;;5075217;28;20028;-65
2021/01/21 00:11:10;;;;;;;12.50;7.15;;;76.80;2227.20;;;;;;5074708;28;20116;-66
2021/01/21 00:13:36;;;;;;;12.57;8.40;;;52.10;2227.20;;;;;;5075232;28;20059;-65
2021/01/21 00:16:02;;;;;;;13.68;7.13;;;51.90;2227.20;;;;;;5074694;28;20400;-66
2021/01/21 00:18:28;;;;;;;11.60;6.53;;;51.90;2227.20;;;;;;5074100;28;20123;-65
2021/01/21 00:20:54;;;;;;;10.13;5.30;;;51.80;2227.20;;;;;;5074940;28;20033;-66
2021/01/21 00:23:20;;;;;;;9.27;5.80;;;51.70;2227.20;;;;;;5074553;28;20119;-65
2021/01/21 00:25:46;;;;;;;10.88;6.85;;;51.70;2227.20;;;;;;5074679;28;20079;-66
2021/01/21 00:28:13;;;;;;;9.40;5.75;;;51.60;2227.20;;;;;;5075103;28;20025;-65
2021/01/21 00:30:38;;;;;;;9.88;6.40;;;51.60;2227.20;;;;;;5074833;28;20364;-66
2021/01/21 00:33:04;;;;;;;7.93;5.18;;;51.60;2227.20;;;;;;5074739;28;20070;-66
2021/01/21 00:35:30;;;;;;;10.45;6.35;;;51.60;2227.20;;;;;;5077440;28;20031;-65
2021/01/21 00:37:56;;;;;;;10.85;6.13;;;51.50;2227.20;;;;;;5094619;28;20032;-65
2021/01/21 00:40:22;;;;;;;11.07;5.72;;;51.50;2227.20;;;;;;5095193;28;20028;-65
2021/01/21 00:42:48;;;;;;;11.90;6.65;;;51.50;2227.20;;;;;;5095133;28;20028;-65
2021/01/21 00:45:13;;;;;;;11.57;6.55;;;51.50;2227.20;;;;;;5094184;28;20421;-65
2021/01/21 00:47:39;;;;;;;10.25;6.93;;;51.40;2227.20;;;;;;5094472;28;20078;-65
2021/01/21 00:50:05;;;;;;;9.05;6.30;;;51.30;2227.20;;;;;;5094507;28;20028;-66
2021/01/21 00:52:31;;;;;;;9.15;5.47;;;51.40;2227.20;;;;;;5094480;28;20032;-64
2021/01/21 00:54:57;;;;;;;13.82;8.07;;;51.30;2227.20;;;;;;5095037;28;20031;-66
2021/01/21 00:57:23;;;;;;;16.05;8.18;;;26.50;2201.60;;;;;;5094894;28;20145;-65
2021/01/21 00:59:48;;;;;;;12.43;7.65;;;26.40;2201.60;;;;;;5094901;28;20626;-65
2021/01/21 01:02:14;;;;;;;15.48;7.80;;;26.30;2201.60;;;;;;5094972;28;20352;-65
2021/01/21 01:04:40;;;;;;;15.45;8.25;;;26.30;2201.60;;;;;;5096163;28;20350;-65
2021/01/21 01:07:06;;;;;;;15.30;9.20;;;26.20;2201.60;;;;;;5098411;28;20044;-65
2021/01/21 01:09:32;;;;;;;12.70;6.90;;;26.10;2201.60;;;;;;5098222;28;20027;-65
2021/01/21 01:11:58;;;;;;;10.68;7.05;;;26.20;2201.60;;;;;;5098135;28;20060;-64
2021/01/21 01:14:23;;;;;;;8.73;4.78;;;26.10;2201.60;;;;;;5098106;28;20104;-65
2021/01/21 01:16:49;;;;;;;8.73;6.13;;;26.20;2201.60;;;;;;5098331;28;20032;-65
2021/01/21 01:19:15;;;;;;;7.65;4.45;;;26.10;2201.60;;;;;;5098290;28;20024;-65
2021/01/21 01:21:42;;;;;;;8.02;5.03;;;26.20;2201.60;;;;;;5097979;28;20103;-65
2021/01/21 01:24:08;;;;;;;13.15;7.13;;;26.20;2201.60;;;;;;5098339;28;20113;-65
2021/01/21 01:26:34;;;;;;;8.35;5.25;;;26.10;2201.60;;;;;;5097773;28;20071;-66
2021/01/21 01:29:00;;;;;;;8.20;4.90;;;26.10;2201.60;;;;;;5098145;28;20031;-65
2021/01/21 01:31:26;;;;;;;17.55;5.28;;;26.10;2201.60;;;;;;5098289;28;20039;-66
2021/01/21 01:33:52;;;;;;;8.80;5.53;;;26.10;2201.60;;;;;;5097438;28;20058;-65
2021/01/21 01:36:18;;;;;;;8.98;5.63;;;26.10;2201.60;;;;;;5097680;28;20030;-65
2021/01/21 01:38:43;;;;;;;7.45;4.75;;;26.10;2201.60;;;;;;5097936;28;20039;-66
2021/01/21 01:41:10;;;;;;;8.32;5.25;;;26.00;2201.60;;;;;;5097923;28;20405;-66
2021/01/21 01:43:36;;;;;;;7.38;5.20;;;26.00;2201.60;;;;;;5097382;28;20391;-66
2021/01/21 01:46:04;;;;;;;11.77;7.70;;;26.00;2201.60;;;;;;5097823;28;20069;-65
2021/01/21 01:48:30;;;;;;;11.32;8.20;;;26.00;2201.60;;;;;;5097621;28;20035;-65
2021/01/21 01:50:58;;;;;;;9.93;7.05;;;26.10;2201.60;;;;;;5097701;28;20032;-66
2021/01/21 01:53:27;;;;;;;10.90;7.28;;;26.00;2201.60;;;;;;5097649;28;20028;-65
2021/01/21 01:55:52;;;;;;;10.63;6.32;;;26.10;2201.60;;;;;;5097257;28;20042;-66
2021/01/21 01:58:18;;;;;;;8.45;4.93;;;26.10;2201.60;;;;;;5097694;28;20119;-66
2021/01/21 02:00:48;;;;;;;7.90;4.97;;;26.20;2201.60;;;;;;5094197;28;20024;-66
2021/01/21 02:03:13;;;;;;;9.73;5.72;;;26.20;2201.60;;;;;;5081652;28;20376;-65
2021/01/21 02:05:40;;;;;;;10.90;6.80;;;26.20;2201.60;;;;;;5077003;28;20055;-65
2021/01/21 02:08:06;;;;;;;13.25;8.18;;;26.20;2201.60;;;;;;5076956;28;20039;-66
2021/01/21 02:10:33;;;;;;;16.05;10.13;;;26.20;2201.60;;;;;;5076897;28;20050;-66
2021/01/21 02:13:02;;;;;;;8.25;4.63;;;26.30;2201.60;;;;;;5076852;28;20066;-66
2021/01/21 02:15:40;;;;;;;8.55;5.43;;;26.30;2201.60;;;;;;5076526;28;20021;-65
2021/01/21 02:18:26;;;;;;;9.73;6.15;;;26.40;2201.60;;;;;;5076992;28;20111;-64
2021/01/21 02:21:10;;;;;;;8.65;4.78;;;26.40;2201.60;;;;;;5076732;28;20406;-66
2021/01/21 02:24:29;;;;;;;8.95;5.22;;;26.40;2201.60;;;;;;5076655;28;20028;-65
2021/01/21 02:26:57;;;;;;;9.02;4.65;;;26.30;2201.60;;;;;;5058803;28;20170;-65
2021/01/21 02:29:25;;;;;;;11.65;6.90;;;26.30;2201.60;;;;;;5076900;28;20036;-65
2021/01/21 02:32:00;;;;;;;10.65;6.13;;;26.30;2201.60;;;;;;5077778;28;20392;-65
2021/01/21 02:34:39;;;;;;;15.05;7.32;;;26.40;2201.60;;;;;;5099031;28;20468;-65
2021/01/21 02:37:09;;;;;;;9.40;4.90;;;26.30;2201.60;;;;;;5099079;28;20028;-65
2021/01/21 02:39:36;;;;;;;11.63;5.20;;;26.20;2201.60;;;;;;5099342;28;20035;-66
2021/01/21 02:42:06;;;;;;;11.30;6.28;;;26.20;2201.60;;;;;;5099002;28;20023;-65
2021/01/21 02:44:32;;;;;;;9.93;6.30;;;26.10;2201.60;;;;;;5098631;28;20024;-65
2021/01/21 02:46:58;;;;;;;13.63;7.68;;;26.10;2201.60;;;;;;5098490;28;20024;-66
2021/01/21 02:49:24;;;;;;;9.35;5.88;;;26.10;2201.60;;;;;;5098851;28;20028;-65
2021/01/21 02:51:59;;;;;;;9.68;5.80;;;26.20;2201.60;;;;;;5098474;28;20040;-65
2021/01/21 02:54:54;;;;;;;11.07;6.60;;;26.20;2201.60;;;;;;5099009;28;20055;-65
2021/01/21 02:57:29;;;;;;;6.85;4.13;;;26.20;2201.60;;;;;;5098948;28;20059;-65
2021/01/21 02:59:57;;;;;;;9.65;4.90;;;26.30;2201.60;;;;;;5098281;28;20422;-65
2021/01/21 03:02:26;;;;;;;10.77;5.43;;;26.30;2201.60;;;;;;5098324;28;20039;-64
2021/01/21 03:04:56;;;;;;;11.27;5.75;;;26.30;2201.60;;;;;;5097685;28;20135;-64
2021/01/21 03:07:25;;;;;;;10.60;5.95;;;26.40;2201.60;;;;;;5097855;28;20345;-66
2021/01/21 03:09:51;;;;;;;9.75;4.85;;;26.30;2201.60;;;;;;5098417;28;20024;-66
2021/01/21 03:12:19;;;;;;;8.73;5.70;;;26.40;2201.60;;;;;;5098085;28;20024;-65
2021/01/21 03:14:46;;;;;;;7.90;4.87;;;26.30;2201.60;;;;;;5098354;28;20054;-66
2021/01/21 03:17:12;;;;;;;13.25;6.68;;;26.30;2201.60;;;;;;5098575;28;20406;-66
2021/01/21 03:19:37;;;;;;;12.27;7.40;;;26.30;2201.60;;;;;;5098024;28;20030;-66
2021/01/21 03:22:03;;;;;;;12.50;6.82;;;26.20;2201.60;;;;;;5098427;28;20039;-65
2021/01/21 03:24:30;;;;;;;13.98;6.70;;;26.20;2201.60;;;;;;5098492;28;20024;-65
2021/01/21 03:26:55;;;;;;;10.23;5.32;;;26.20;2201.60;;;;;;5097291;28;20031;-65
2021/01/21 03:29:21;;;;;;;9.60;4.90;;;26.20;2201.60;;;;;;5098139;28;20429;-65
2021/01/21 03:31:47;;;;;;;8.82;4.57;;;26.30;2201.60;;;;;;5098328;28;20028;-65
2021/01/21 03:34:13;;;;;;;8.30;4.43;;;26.40;2201.60;;;;;;5097764;28;20016;-65
2021/01/21 03:36:39;;;;;;;6.97;4.00;;;26.50;2201.60;;;;;;5098266;28;20028;-66
2021/01/21 03:39:04;;;;;;;9.68;5.68;;;26.50;2201.60;;;;;;5098219;28;20023;-66
2021/01/21 03:41:30;;;;;;;10.55;5.55;;;26.40;2201.60;;;;;;5097361;28;20425;-65
2021/01/21 03:43:56;;;;;;;8.20;4.75;;;26.40;2201.60;;;;;;5097862;28;20020;-65
2021/01/21 03:46:22;;;;;;;9.88;4.78;;;26.40;2201.60;;;;;;5098049;28;20028;-65
2021/01/21 03:48:47;;;;;;;14.15;5.85;;;26.40;2201.60;;;;;;5097793;28;20031;-65
2021/01/21 03:51:13;;;;;;;7.82;4.93;;;26.50;2201.60;;;;;;5097999;28;20032;-64
2021/01/21 03:53:39;;;;;;;9.43;5.78;;;26.50;2201.60;;;;;;5097175;28;20031;-65
2021/01/21 03:56:05;;;;;;;10.27;5.90;;;26.40;2201.60;;;;;;5097697;28;20318;-66
2021/01/21 03:58:31;;;;;;;10.10;5.70;;;26.40;2201.60;;;;;;5097909;28;20020;-66
2021/01/21 04:00:56;;;;;;;11.95;6.40;;;26.40;2201.60;;;;;;5097592;28;20024;-65
2021/01/21 04:03:22;;;;;;;10.05;5.53;;;26.40;2201.60;;;;;;5097558;28;20325;-65
2021/01/21 04:05:48;;;;;;;9.27;5.82;;;26.50;2201.60;;;;;;5097407;28;20354;-65
2021/01/21 04:08:14;;;;;;;13.88;5.72;;;26.50;2201.60;;;;;;5096659;28;20423;-65
2021/01/21 04:10:39;;;;;;;9.70;6.10;;;26.40;2201.60;;;;;;5097434;28;20095;-64
2021/01/21 04:13:05;;;;;;;8.82;5.20;;;26.50;2201.60;;;;;;5097137;28;20482;-65
2021/01/21 04:15:31;;;;;;;9.25;6.03;;;26.50;2201.60;;;;;;5096847;28;20024;-65
2021/01/21 04:17:57;;;;;;;16.20;7.00;;;26.40;2201.60;;;;;;5096698;28;20451;-65
2021/01/21 04:20:22;;;;;;;12.02;5.82;;;26.40;2201.60;;;;;;5096761;28;20028;-65
2021/01/21 04:22:48;;;;;;;10.68;5.95;;;26.40;2201.60;;;;;;5091020;28;20079;-65
2021/01/21 04:25:14;;;;;;;13.32;6.25;;;26.40;2201.60;;;;;;5077079;28;20114;-65
2021/01/21 04:27:40;;;;;;;10.00;6.35;;;26.40;2201.60;;;;;;5076740;28;20139;-66
2021/01/21 04:30:06;;;;;;;12.13;7.45;;;26.40;2201.60;;;;;;5076215;28;20031;-65
2021/01/21 04:32:32;;;;;;;13.23;6.75;;;26.40;2201.60;;;;;;5077028;28;20418;-64
2021/01/21 04:34:57;;;;;;;13.82;6.68;;;26.50;2201.60;;;;;;5076977;28;20036;-66
2021/01/21 04:37:23;;;;;;;12.02;6.88;;;26.50;2201.60;;;;;;5077014;28;20039;-65
2021/01/21 04:39:49;;;;;;;12.35;7.25;;;26.50;2201.60;;;;;;5080332;28;20031;-66
2021/01/21 04:42:15;;;;;;;11.48;7.43;;;26.50;2201.60;;;;;;5085744;28;20034;-65
2021/01/21 04:44:41;;;;;;;11.15;7.18;;;26.50;2201.60;;;;;;5092077;28;20034;-65
2021/01/21 04:47:09;;;;;;;13.45;7.53;;;26.40;2201.60;;;;;;5089394;28;20056;-65
2021/01/21 04:49:40;;;;;;;8.97;5.13;;;26.40;2201.60;;;;;;5090021;28;20016;-65
2021/01/21 04:52:09;;;;;;;11.25;5.20;;;26.40;2201.60;;;;;;5089351;28;20554;-65
2021/01/21 04:54:41;;;;;;;10.82;5.40;;;26.40;2201.60;;;;;;5084703;28;20345;-66
2021/01/21 04:57:12;;;;;;;12.85;7.30;;;26.40;2201.60;;;;;;5080684;28;20063;-66
2021/01/21 04:59:40;;;;;;;10.98;6.95;;;26.40;2201.60;;;;;;5080985;28;20081;-66
2021/01/21 05:02:06;;;;;;;11.65;6.57;;;26.50;2201.60;;;;;;5080480;28;20414;-65
2021/01/21 05:04:33;;;;;;;12.18;6.72;;;26.50;2201.60;;;;;;5080067;28;20346;-64
2021/01/21 05:07:00;;;;;;;12.00;6.50;;;26.50;2201.60;;;;;;5080424;28;20033;-65
2021/01/21 05:09:26;;;;;;;11.73;5.60;;;51.20;2227.20;;;;;;5080188;28;20025;-64
2021/01/21 05:11:53;;;;;;;9.25;4.60;;;51.20;2227.20;;;;;;5079888;28;20029;-66
2021/01/21 05:14:19;;;;;;;8.77;4.57;;;51.20;2227.20;;;;;;5080067;28;20484;-65
2021/01/21 05:16:45;;;;;;;9.05;4.82;;;51.20;2227.20;;;;;;5080068;28;20036;-65
2021/01/21 05:19:14;;;;;;;9.55;6.28;;;51.20;2227.20;;;;;;5079759;28;20074;-65
2021/01/21 05:21:43;;;;;;;10.05;5.93;;;51.30;2227.20;;;;;;5080239;28;20029;-65
2021/01/21 05:24:12;;;;;;;;;;;51.30;2227.20;;;;;;5080410;28;20078;-65
2021/01/21 05:26:39;;;;;;;12.40;7.00;;;51.40;2227.20;;;;;;5079771;28;20221;-66
2021/01/21 05:29:06;;;;;;;12.88;6.47;;;51.40;2227.20;;;;;;5079830;28;20105;-66
2021/01/21 05:31:35;;;;;;;12.52;7.10;;;51.50;2227.20;;;;;;5079501;28;20131;-65
2021/01/21 05:34:04;;;;;;;12.82;7.80;;;51.50;2227.20;;;;;;5079815;28;20048;-66
2021/01/21 05:36:35;;;;;;;14.85;7.47;;;51.50;2227.20;;;;;;5080043;28;20135;-65
2021/01/21 05:39:05;;;;;;;15.95;7.55;;;51.50;2227.20;;;;;;5079207;28;20077;-65
2021/01/21 05:41:33;;;;;;;11.38;6.80;;;51.60;2227.20;;;;;;5079532;28;20032;-65
2021/01/21 05:44:02;;;;;;;16.60;9.77;;;51.60;2227.20;;;;;;5079881;28;20027;-66
2021/01/21 05:46:28;;;;;;;15.63;7.75;;;51.60;2227.20;;;;;;5079153;28;20040;-64
2021/01/21 05:48:54;;;;;;;54.80;26.58;;;51.60;2227.20;;;;;;5079772;28;20424;-64
2021/01/21 05:51:23;;;;;;;49.05;26.02;;;51.60;2227.20;;;;;;5078833;28;20020;-65
2021/01/21 05:53:48;;;;;;;36.80;23.45;;;51.70;2227.20;;;;;;5079190;28;20032;-65
2021/01/21 05:56:19;;;;;;;34.78;18.05;;;51.80;2227.20;;;;;;5079621;28;20037;-63
2021/01/21 05:58:45;;;;;;;44.22;29.38;;;51.80;2227.20;;;;;;5079429;28;20410;-62
2021/01/21 06:01:11;;;;;;;29.55;20.75;;;51.90;2227.20;;;;;;5078948;28;20031;-64
2021/01/21 06:03:38;;;;;;;26.55;19.67;;;52.00;2227.20;;;;;;5079255;28;20020;-63
2021/01/21 06:06:07;;;;;;;18.02;14.10;;;52.10;2227.20;;;;;;5079254;28;20056;-63
2021/01/21 06:08:40;;;;;;;11.50;8.05;;;52.10;2227.20;;;;;;5079219;28;20250;-64
2021/01/21 06:11:10;;;;;;;12.13;7.57;;;52.10;2227.20;;;;;;5079603;28;20031;-65
2021/01/21 06:13:41;;;;;;;27.08;16.33;;;76.80;2227.20;;;;;;5079123;28;20068;-64
2021/01/21 06:16:08;;;;;;;22.63;16.80;;;76.80;2227.20;;;;;;5079546;28;20066;-64
2021/01/21 06:18:34;;;;;;;12.32;7.88;;;76.90;2227.20;;;;;;5089917;28;20081;-64
2021/01/21 06:21:01;;;;;;;20.55;15.93;;;77.00;2227.20;;;;;;5099432;28;20024;-63
2021/01/21 06:23:30;;;;;;;30.15;19.30;;;77.10;2227.20;;;;;;5099353;28;20032;-64
2021/01/21 06:25:58;;;;;;;14.35;10.25;;;77.20;2227.20;;;;;;5099505;28;20031;-64
2021/01/21 06:28:25;;;;;;;10.88;8.00;;;77.30;2227.20;;;;;;5098717;28;20050;-63
2021/01/21 06:30:53;;;;;;;12.65;8.13;;;77.30;2227.20;;;;;;5099166;28;20073;-65
2021/01/21 06:33:41;;;;;;;45.92;23.27;;;77.40;2227.20;;;;;;5099123;28;20106;-63
2021/01/21 06:36:15;;;;;;;44.25;23.48;;;77.60;2227.20;;;;;;5099162;28;20036;-64
2021/01/21 06:38:43;;;;;;;50.90;28.83;;;77.70;2227.20;;;;;;5099098;28;20020;-63
2021/01/21 06:41:14;;;;;;;43.45;23.45;;;77.70;2227.20;;;;;;5098656;28;20062;-62
2021/01/21 06:43:40;;;;;;;34.72;19.45;;;102.40;2227.20;;;;;;5099021;28;20397;-64
2021/01/21 06:46:08;;;;;;;14.82;8.98;;;77.70;2227.20;;;;;;5098572;28;20115;-63
2021/01/21 06:48:34;;;;;;;37.30;22.38;;;102.60;2227.20;;;;;;5091799;28;20441;-65
2021/01/21 06:51:06;;;;;;;15.65;9.35;;;102.90;2227.20;;;;;;5086813;28;20103;-64
2021/01/21 06:53:33;;;;;;;19.65;13.70;;;102.90;2227.20;;;;;;5087840;28;20023;-64
2021/01/21 06:55:59;;;;;;;22.13;14.65;;;103.00;2227.20;;;;;;5080546;28;20024;-65
2021/01/21 06:58:46;;;;;;;22.58;11.93;;;103.00;2227.20;;;;;;5078738;28;20031;-65
2021/01/21 07:01:30;;;;;;;15.35;10.27;;;103.20;2227.20;;;;;;5078514;28;20070;-63
2021/01/21 07:04:18;;;;;;;14.95;9.73;;;103.20;2227.20;;;;;;5078003;28;20021;-64
2021/01/21 07:06:53;;;;;;;18.90;10.55;;;103.30;2227.20;;;;;;5071511;28;20150;-65
2021/01/21 07:09:21;;;;;;;22.08;13.32;;;128.00;2252.80;;;;;;5078537;28;20062;-66
2021/01/21 07:11:47;;;;;;;13.77;9.60;;;128.10;2252.80;;;;;;5077889;28;20032;-64
2021/01/21 07:14:20;;;;;;;11.80;8.00;;;128.30;2252.80;;;;;;5078387;28;20099;-64
2021/01/21 07:16:52;;;;;;;7.75;5.65;;;128.40;2227.20;;;;;;5078080;28;20052;-64
2021/01/21 07:19:37;;;;;;;24.65;14.88;;;128.50;2227.20;;;;;;5078250;28;20032;-63
2021/01/21 07:22:20;;;;;;;45.45;29.98;;;128.70;2201.60;;;;;;5083099;28;20109;-64
2021/01/21 07:25:01;;;;;;;52.25;35.63;;;128.80;2176.00;;;;;;5077640;28;20032;-64
2021/01/21 07:27:28;;;;;;;36.95;25.20;;;128.80;2176.00;;;;;;5078065;28;20119;-64
2021/01/21 07:30:16;;;;;;;25.23;18.02;;;128.90;2176.00;;;;;;5078088;28;20111;-64
2021/01/21 07:32:43;;;;;;;23.83;16.33;;;128.90;2150.40;;;;;;5096503;28;20024;-64
2021/01/21 07:35:31;;;;;;;18.33;11.15;;;153.70;2150.40;;;;;;5097995;28;20039;-65
2021/01/21 07:37:57;;;;;;;19.00;12.63;;;153.90;2150.40;;;;;;5077371;28;20044;-65
2021/01/21 07:40:45;;;;;;;24.38;12.55;;;154.00;2124.80;;;;;;5083214;28;20035;-65
2021/01/21 07:43:11;;;;;;;21.40;11.13;;;154.10;2099.20;;;;;;5095002;28;20129;-65
2021/01/21 07:45:38;;;;;;;19.98;11.27;;;154.20;2099.20;;;;;;5092788;28;20048;-63
2021/01/21 07:48:21;;;;;;;20.02;14.02;;;154.30;2073.60;;;;;;5077571;28;20047;-65
2021/01/21 07:50:47;;;;;;;20.52;13.10;;;154.40;2048.00;;;;;;5077237;28;20322;-65
2021/01/21 07:53:24;;;;;;;29.08;19.05;;;154.50;2022.40;;;;;;5076970;28;20028;-65
2021/01/21 07:55:52;;;;;;;34.65;22.40;;;179.20;2022.40;;;;;;5085346;28;20031;-64
2021/01/21 07:58:22;;;;;;;54.92;29.95;;;179.20;2022.40;;;;;;5089774;28;20031;-64
2021/01/21 08:00:58;;;;;;;105.93;63.50;;;179.20;2022.40;;;;;;5097756;28;20028;-63
2021/01/21 08:03:40;;;;;;;75.97;46.65;;;179.40;1996.80;;;;;;5097314;28;20028;-65
2021/01/21 08:06:08;;;;;;;25.33;16.15;;;179.50;1971.20;;;;;;5097101;28;20056;-65
2021/01/21 08:08:33;;;;;;;77.37;48.17;;;179.50;1945.60;;;;;;5097870;28;20024;-65
2021/01/21 08:11:07;;;;;;;58.55;37.15;;;179.60;1920.00;;;;;;5097728;28;20024;-65
2021/01/21 08:13:33;;;;;;;39.40;23.83;;;179.70;1945.60;;;;;;5097108;28;20024;-65
2021/01/21 08:16:00;;;;;;;54.88;30.60;;;179.80;1920.00;;;;;;5096566;28;20115;-63
2021/01/21 08:18:26;;;;;;;42.83;18.92;;;179.80;1920.00;;;;;;5086730;28;20021;-65
2021/01/21 08:20:52;;;;;;;32.63;17.35;;;179.90;1920.00;;;;;;5085716;28;20479;-65
2021/01/21 08:23:18;;;;;;;32.75;18.92;;;180.00;1868.80;;;;;;5087484;28;20103;-65
2021/01/21 08:25:53;;;;;;;35.50;20.70;;;180.00;1868.80;;;;;;5077309;28;20078;-64
2021/01/21 08:28:21;;;;;;;30.17;17.50;;;180.10;1894.40;;;;;;5077144;28;20028;-66
2021/01/21 08:30:49;;;;;;;36.85;19.63;;;180.10;1868.80;;;;;;5083542;28;20030;-64
2021/01/21 08:33:31;;;;;;;36.67;21.42;;;205.00;1843.20;;;;;;5096972;28;20483;-65
2021/01/21 08:35:59;;;;;;;39.60;24.08;;;205.10;1817.60;;;;;;5096142;28;20491;-65
2021/01/21 08:38:37;;;;;;;36.60;22.80;;;205.10;1817.60;;;;;;5095866;28;20311;-64
2021/01/21 08:41:07;;;;;;;39.17;22.23;;;205.30;1792.00;;;;;;5096348;28;20019;-65
2021/01/21 08:43:38;;;;;;;47.50;23.90;;;205.40;1792.00;;;;;;5096087;28;20051;-65
2021/01/21 08:46:18;;;;;;;39.13;20.73;;;205.40;1817.60;;;;;;5096237;28;20460;-65
2021/01/21 08:48:46;;;;;;;41.50;20.77;;;205.50;1792.00;;;;;;5096709;28;20426;-65
2021/01/21 08:51:42;;;;;;;35.63;18.90;;;205.60;1766.40;;;;;;5096728;28;20016;-65
2021/01/21 08:54:16;;;;;;;32.40;19.13;;;230.40;1740.80;;;;;;5096894;28;20020;-64
2021/01/21 08:56:42;;;;;;;35.13;18.55;;;230.60;1740.80;;;;;;5096705;28;20376;-64
2021/01/21 08:59:28;;;;;;;27.17;17.20;;;230.70;1715.20;;;;;;5097040;28;20024;-65
2021/01/21 09:01:55;;;;;;;32.40;16.30;;;230.80;1715.20;;;;;;5097010;28;20062;-65
2021/01/21 09:04:29;;;;;;;22.92;14.25;;;230.90;1689.60;;;;;;5096610;28;20101;-66
2021/01/21 09:06:56;;;;;;;83.65;59.08;;;231.10;1664.00;;;;;;5097210;28;20028;-66
2021/01/21 09:09:31;;;;;;;44.15;31.88;;;231.20;1664.00;;;;;;5096882;28;20024;-65
2021/01/21 09:12:17;;;;;;;33.72;22.98;;;231.20;1664.00;;;;;;5097219;28;20432;-65
2021/01/21 09:14:43;;;;;;;37.70;22.13;;;231.30;1689.60;;;;;;5096358;28;20030;-65
2021/01/21 09:17:15;;;;;;;21.98;14.55;;;256.00;1664.00;;;;;;5096937;28;20092;-64
2021/01/21 09:19:42;;;;;;;27.30;16.05;;;256.10;1664.00;;;;;;5097110;28;20051;-64
2021/01/21 09:22:17;;;;;;;25.83;14.82;;;256.30;1638.40;;;;;;5096518;28;20049;-65
2021/01/21 09:24:59;;;;;;;27.13;16.00;;;256.40;1612.80;;;;;;5096564;28;20030;-65
2021/01/21 09:27:26;;;;;;;34.22;18.33;;;256.40;1587.20;;;;;;5100665;28;20040;-65
2021/01/21 09:30:06;;;;;;;38.58;21.67;;;256.40;1612.80;;;;;;5100460;28;20019;-65
2021/01/21 09:32:34;;;;;;;46.40;27.27;;;256.70;1612.80;;;;;;5100414;28;20073;-65
2021/01/21 09:35:06;;;;;;;37.67;25.27;;;256.90;1561.60;;;;;;5100656;28;20050;-64
2021/01/21 09:37:46;;;;;;;57.42;31.58;;;281.60;1587.20;;;;;;5100319;28;20028;-64
2021/01/21 09:40:22;;;;;;;71.63;41.45;;;281.80;1561.60;;;;;;5100565;28;20077;-64
2021/01/21 09:42:48;;;;;;;49.90;28.63;;;281.90;1561.60;;;;;;5099914;28;20020;-64
2021/01/21 09:45:14;;;;;;;39.75;29.23;;;281.90;1561.60;;;;;;5099847;28;20071;-64
2021/01/21 09:47:40;;;;;;;36.67;23.65;;;282.20;1561.60;;;;;;5100059;28;20024;-64
2021/01/21 09:50:08;;;;;;;26.88;17.75;;;282.50;1536.00;;;;;;5100289;28;20024;-65
2021/01/21 09:52:34;;;;;;;26.13;15.82;;;282.50;1536.00;;;;;;5100316;28;20035;-65
2021/01/21 09:55:00;;;;;;;29.08;18.02;;;307.20;1561.60;;;;;;5099995;28;20024;-65
2021/01/21 09:57:27;;;;;;;31.60;19.38;;;307.30;1536.00;;;;;;5100199;28;20047;-65
2021/01/21 09:59:53;;;;;;;37.22;23.67;;;307.50;1536.00;;;;;;5099606;28;20082;-65
2021/01/21 10:02:19;;;;;;;83.32;45.83;;;307.70;1510.40;;;;;;5099857;28;20028;-64
2021/01/21 10:04:45;;;;;;;59.22;38.85;;;307.80;1510.40;;;;;;5099903;28;20117;-65
2021/01/21 10:07:11;;;;;;;162.77;123.78;;;307.90;1510.40;;;;;;5099585;28;20063;-65
2021/01/21 10:09:38;;;;;;;33.70;23.48;;;308.00;1484.80;;;;;;5099711;28;20024;-64
2021/01/21 10:12:05;;;;;;;24.00;14.82;;;332.80;1510.40;;;;;;5099792;28;20055;-65
2021/01/21 10:14:32;;;;;;;20.55;13.77;;;332.90;1484.80;;;;;;5100370;28;20385;-66
2021/01/21 10:16:58;;;;;;;27.55;18.52;;;333.10;1459.20;;;;;;5098944;28;20032;-65
2021/01/21 10:19:25;;;;;;;22.10;14.57;;;333.10;1459.20;;;;;;5099455;28;20110;-66
2021/01/21 10:21:51;;;;;;;18.23;13.32;;;333.00;1459.20;;;;;;5099457;28;20027;-65
2021/01/21 10:24:16;;;;;;;24.77;19.23;;;332.90;1459.20;;;;;;5098847;28;20329;-65
2021/01/21 10:26:43;;;;;;;37.13;25.77;;;333.00;1484.80;;;;;;5099533;28;20034;-65
2021/01/21 10:29:08;;;;;;;30.90;23.10;;;333.10;1459.20;;;;;;5099038;28;20031;-65
2021/01/21 10:31:35;;;;;;;29.50;20.27;;;332.90;1484.80;;;;;;5099546;28;20028;-65
2021/01/21 10:34:02;;;;;;;26.20;17.92;;;333.20;1484.80;;;;;;5098890;28;20114;-65
2021/01/21 10:36:28;;;;;;;20.38;15.13;;;333.20;1484.80;;;;;;5098515;28;20024;-66
2021/01/21 10:38:54;;;;;;;27.15;15.85;;;333.40;1484.80;;;;;;5099350;28;20031;-65
2021/01/21 10:41:20;;;;;;;34.53;23.33;;;333.20;1484.80;;;;;;5099269;28;20020;-65
2021/01/21 10:43:46;;;;;;;25.90;17.25;;;333.20;1484.80;;;;;;5098168;28;20376;-64
2021/01/21 10:46:12;;;;;;;24.17;14.93;;;333.10;1484.80;;;;;;5098289;28;20031;-65
2021/01/21 10:48:38;;;;;;;15.82;11.13;;;333.40;1433.60;;;;;;5099203;28;20060;-65
2021/01/21 10:51:03;;;;;;;23.48;17.05;;;333.60;1408.00;;;;;;5098304;28;20032;-65
2021/01/21 10:53:29;;;;;;;14.60;10.15;;;333.60;1459.20;;;;;;5098852;28;20428;-65
2021/01/21 10:55:55;;;;;;;15.95;10.38;;;333.40;1433.60;;;;;;5099091;28;20055;-66
2021/01/21 10:58:20;;;;;;;24.60;14.15;;;333.60;1433.60;;;;;;5098752;28;20024;-65
2021/01/21 11:00:47;;;;;;;16.40;9.55;;;333.70;1408.00;;;;;;5098622;28;20024;-65
2021/01/21 11:03:13;;;;;;;20.80;11.20;;;333.70;1408.00;;;;;;5098659;28;20024;-64
2021/01/21 11:05:44;;;;;;;22.63;13.88;;;333.60;1408.00;;;;;;5098388;28;20136;-65
2021/01/21 11:08:11;;;;;;;24.00;15.95;;;333.60;1408.00;;;;;;5098022;28;20032;-64
2021/01/21 11:10:38;;;;;;;24.83;15.77;;;333.70;1433.60;;;;;;5090415;28;20440;-66
2021/01/21 11:13:04;;;;;;;23.40;15.15;;;358.40;1408.00;;;;;;5096651;28;20016;-65
2021/01/21 11:15:30;;;;;;;23.27;16.35;;;358.50;1408.00;;;;;;5096038;28;20028;-66
2021/01/21 11:17:56;;;;;;;28.60;18.90;;;358.60;1408.00;;;;;;5097884;28;20336;-66
2021/01/21 11:20:23;;;;;;;40.88;21.77;;;358.70;1408.00;;;;;;5095399;28;20054;-65
2021/01/21 11:22:49;;;;;;;51.20;25.83;;;358.40;1382.40;;;;;;5098005;28;20038;-65
2021/01/21 11:25:16;;;;;;;135.70;87.55;;;358.50;1382.40;;;;;;5094058;28;20034;-66
2021/01/21 11:27:41;;;;;;;84.57;55.60;;;358.50;1382.40;;;;;;5095840;28;20028;-64
2021/01/21 11:30:09;;;;;;;55.80;30.20;;;358.50;1382.40;;;;;;5094744;28;20085;-66
2021/01/21 11:32:36;;;;;;;38.17;25.50;;;358.40;1382.40;;;;;;5096356;28;20019;-65
2021/01/21 11:35:03;;;;;;;42.58;28.27;;;333.50;1433.60;;;;;;5096794;28;20024;-65
2021/01/21 11:37:29;;;;;;;52.30;40.58;;;333.60;1433.60;;;;;;5097596;28;20436;-65
2021/01/21 11:39:56;;;;;;;36.65;26.98;;;333.60;1433.60;;;;;;5096819;28;20456;-65
2021/01/21 11:42:22;;;;;;;24.88;17.80;;;333.60;1433.60;;;;;;5097340;28;20028;-65
2021/01/21 11:44:48;;;;;;;15.88;10.02;;;358.40;1433.60;;;;;;5097674;28;20020;-65
2021/01/21 11:47:14;;;;;;;15.98;7.80;;;358.70;1408.00;;;;;;5097544;28;20039;-66
2021/01/21 11:49:40;;;;;;;10.70;6.03;;;358.70;1382.40;;;;;;5092196;28;20074;-66
2021/01/21 11:52:06;;;;;;;14.02;10.25;;;359.00;1356.80;;;;;;5096819;28;20099;-66
2021/01/21 11:54:31;;;;;;;49.70;36.30;;;359.10;1382.40;;;;;;5097313;28;20023;-65
2021/01/21 11:56:57;;;;;;;62.92;32.53;;;359.30;1331.20;;;;;;5097486;28;20055;-65
2021/01/21 11:59:23;;;;;;;75.57;35.90;;;384.10;1331.20;;;;;;5097740;28;20043;-65
2021/01/21 12:01:49;;;;;;;34.05;19.23;;;384.30;1331.20;;;;;;5097277;28;20126;-65
2021/01/21 12:04:15;;;;;;;10.70;3.88;;;384.50;1305.60;;;;;;5096806;28;20030;-66
2021/01/21 12:06:41;;;;;;;10.88;3.80;;;384.60;1280.00;;;;;;5097036;28;20042;-66
2021/01/21 12:09:07;;;;;;;18.48;13.73;;;384.50;1280.00;;;;;;5096182;28;20076;-66
2021/01/21 12:11:35;;;;;;;36.05;24.77;;;384.10;1305.60;;;;;;5096944;28;20066;-66
2021/01/21 12:14:01;;;;;;;27.83;18.40;;;384.50;1280.00;;;;;;5097087;28;20381;-66
2021/01/21 12:16:28;;;;;;;16.00;12.00;;;384.60;1280.00;;;;;;5096317;28;20050;-65
2021/01/21 12:18:54;;;;;;;24.85;16.80;;;384.50;1254.40;;;;;;5097047;28;20106;-65